createdAt,value
2022-11-08T00:04:57.626Z,0.90
2022-11-08T00:10:18.183Z,1.00
2022-11-08T00:15:19.968Z,1.60
2022-11-08T00:20:21.736Z,1.40
2022-11-08T00:25:23.532Z,1.90
2022-11-08T00:30:25.308Z,1.10
2022-11-08T00:35:27.085Z,1.17
2022-11-08T00:40:28.863Z,1.15
2022-11-08T00:45:30.666Z,1.25
2022-11-08T00:50:32.514Z,1.35
2022-11-08T00:55:34.295Z,1.00
2022-11-08T01:00:36.208Z,1.20
2022-11-08T01:05:38.401Z,1.35
2022-11-08T01:10:45.659Z,1.13
2022-11-08T01:15:48.425Z,1.05
2022-11-08T01:20:50.896Z,1.40
2022-11-08T01:25:52.706Z,1.45
2022-11-08T01:30:54.484Z,1.40
2022-11-08T01:35:56.343Z,1.63
2022-11-08T01:40:58.132Z,1.23
2022-11-08T01:46:18.376Z,1.40
2022-11-08T01:51:26.082Z,1.80
2022-11-08T01:56:28.036Z,1.20
2022-11-08T02:01:30.127Z,1.00
2022-11-08T02:06:35.888Z,0.80
2022-11-08T02:11:39.512Z,1.45
2022-11-08T02:16:41.302Z,0.93
2022-11-08T02:21:50.805Z,1.05
2022-11-08T02:26:55.282Z,1.17
2022-11-08T02:31:58.768Z,0.90
2022-11-08T02:37:03.627Z,1.30
2022-11-08T02:42:05.576Z,1.05
2022-11-08T02:47:07.387Z,0.90
2022-11-08T02:52:09.502Z,1.05
2022-11-08T02:57:11.332Z,0.65
2022-11-08T03:02:13.232Z,1.13
2022-11-08T03:07:15.220Z,1.05
2022-11-08T03:12:17.044Z,0.70
2022-11-08T03:17:18.837Z,1.00
2022-11-08T03:22:20.638Z,1.00
2022-11-08T03:27:23.382Z,0.95
2022-11-08T03:32:25.129Z,0.93
2022-11-08T03:37:26.913Z,1.02
2022-11-08T03:42:28.689Z,0.80
2022-11-08T03:47:30.459Z,1.27
2022-11-08T03:52:32.199Z,0.90
2022-11-08T03:57:34.173Z,1.05
2022-11-08T04:02:35.972Z,1.10
2022-11-08T04:07:38.338Z,0.80
2022-11-08T04:12:59.934Z,0.98
2022-11-08T04:18:21.016Z,0.82
2022-11-08T04:23:23.097Z,0.80
2022-11-08T04:28:26.978Z,1.00
2022-11-08T04:33:28.983Z,1.00
2022-11-08T04:38:31.926Z,1.25
2022-11-08T04:43:33.913Z,1.33
2022-11-08T04:48:36.350Z,0.93
2022-11-08T04:53:38.135Z,0.85
2022-11-08T04:58:45.435Z,1.05
2022-11-08T05:03:49.283Z,0.77
2022-11-08T05:08:51.512Z,0.77
2022-11-08T05:13:53.840Z,1.52
2022-11-08T05:18:56.186Z,2.83
2022-11-08T05:23:59.094Z,3.63
2022-11-08T05:29:00.898Z,7.40
2022-11-08T05:34:02.740Z,8.52
2022-11-08T05:39:04.586Z,2.40
2022-11-08T05:44:06.406Z,7.13
2022-11-08T05:49:08.201Z,4.75
2022-11-08T05:54:10.282Z,4.40
2022-11-08T05:59:12.055Z,1.50
2022-11-08T06:04:13.921Z,1.00
2022-11-08T06:09:15.699Z,0.88
2022-11-08T06:14:17.463Z,1.15
2022-11-08T06:19:19.262Z,1.00
2022-11-08T06:24:21.065Z,0.80
2022-11-08T06:29:22.870Z,0.90
2022-11-08T06:34:25.227Z,0.73
2022-11-08T06:39:27.130Z,1.27
2022-11-08T06:44:28.955Z,0.75
2022-11-08T06:49:30.741Z,0.70
2022-11-08T06:54:32.547Z,1.23
2022-11-08T06:59:34.334Z,1.55
2022-11-08T07:04:36.138Z,1.30
2022-11-08T07:09:37.934Z,0.90
2022-11-08T07:14:39.716Z,1.20
2022-11-08T07:19:41.617Z,1.20
2022-11-08T07:24:43.408Z,1.30
2022-11-08T07:29:45.219Z,1.20
2022-11-08T07:34:47.118Z,0.95
2022-11-08T07:39:48.910Z,1.30
2022-11-08T07:44:50.907Z,1.20
2022-11-08T07:49:52.701Z,1.15
2022-11-08T07:54:54.721Z,1.50
2022-11-08T07:59:56.526Z,0.90
2022-11-08T08:04:58.332Z,1.10
2022-11-08T08:10:00.242Z,0.77
2022-11-08T08:15:02.172Z,1.30
2022-11-08T08:20:04.745Z,1.00
2022-11-08T08:25:07.189Z,1.30
2022-11-08T08:30:09.313Z,1.40
2022-11-08T08:35:11.623Z,1.60
2022-11-08T08:40:13.509Z,1.80
2022-11-08T08:45:15.429Z,1.50
2022-11-08T08:50:17.272Z,2.00
2022-11-08T08:55:19.517Z,1.95
2022-11-08T09:05:47.018Z,1.95
2022-11-08T09:10:57.305Z,1.80
2022-11-08T09:16:01.884Z,2.45
2022-11-08T09:21:04.473Z,3.53
2022-11-08T09:26:06.622Z,6.45
2022-11-08T09:31:10.913Z,2.40
2022-11-08T09:36:14.141Z,2.38
2022-11-08T09:41:41.589Z,2.65
2022-11-08T09:46:53.678Z,2.78
2022-11-08T09:51:55.692Z,2.53
2022-11-08T09:56:58.373Z,1.48
2022-11-08T10:02:00.327Z,1.05
2022-11-08T10:07:08.019Z,1.13
2022-11-08T10:12:28.522Z,1.15
2022-11-08T10:17:42.198Z,0.85
2022-11-08T10:23:05.501Z,1.10
2022-11-08T10:28:08.301Z,1.13
2022-11-08T10:33:18.419Z,1.05
2022-11-08T10:38:24.989Z,1.20
2022-11-08T10:43:49.930Z,0.82
2022-11-08T10:48:51.737Z,0.90
2022-11-08T10:53:53.595Z,1.00
2022-11-08T10:58:55.451Z,0.80
2022-11-08T11:03:57.291Z,1.08
2022-11-08T11:09:03.814Z,0.73
2022-11-08T11:14:22.249Z,1.02
2022-11-08T11:19:26.274Z,0.90
2022-11-08T11:24:28.498Z,1.13
2022-11-08T11:29:32.714Z,1.00
2022-11-08T11:34:49.205Z,1.30
2022-11-08T11:40:12.813Z,1.00
2022-11-08T11:45:17.953Z,0.80
2022-11-08T11:50:28.657Z,0.77
2022-11-08T11:55:49.339Z,0.90
2022-11-08T12:01:14.833Z,1.15
2022-11-08T12:06:21.580Z,1.10
2022-11-08T12:11:36.462Z,1.00
2022-11-08T12:17:07.481Z,0.70
2022-11-08T12:27:31.188Z,1.20
2022-11-08T12:32:45.568Z,1.10
2022-11-08T12:38:05.829Z,1.67
2022-11-08T12:43:23.135Z,1.15
2022-11-08T12:48:24.896Z,0.93
2022-11-08T12:53:51.518Z,1.15
2022-11-08T12:58:55.146Z,1.20
2022-11-08T13:04:21.648Z,1.17
2022-11-08T13:09:37.416Z,1.17
2022-11-08T13:14:41.423Z,1.02
2022-11-08T13:19:49.788Z,0.80
2022-11-08T13:24:51.682Z,0.88
2022-11-08T13:29:56.844Z,1.02
2022-11-08T13:35:25.616Z,1.00
2022-11-08T13:40:55.692Z,0.80
2022-11-08T13:46:31.878Z,1.10
2022-11-08T13:51:36.748Z,0.93
2022-11-08T13:56:45.937Z,1.00
2022-11-08T14:01:47.689Z,1.20
2022-11-08T14:06:55.185Z,0.90
2022-11-08T14:12:12.322Z,1.10
2022-11-08T14:17:26.662Z,0.90
2022-11-08T14:22:30.374Z,0.90
2022-11-08T14:27:36.825Z,1.08
2022-11-08T14:32:40.780Z,1.23
2022-11-08T14:37:44.042Z,1.52
2022-11-08T14:42:46.006Z,1.38
2022-11-08T14:48:00.820Z,1.70
2022-11-08T14:53:45.008Z,1.52
2022-11-08T14:58:48.444Z,1.67
2022-11-08T15:03:55.789Z,1.58
2022-11-08T15:08:58.176Z,2.00
2022-11-08T15:14:17.062Z,1.50
2022-11-08T15:19:30.285Z,2.10
2022-11-08T15:24:39.981Z,2.10
2022-11-08T15:30:07.152Z,1.90
2022-11-08T15:35:23.903Z,2.90
2022-11-08T15:40:32.043Z,1.85
2022-11-08T15:45:35.749Z,2.65
2022-11-08T15:50:37.693Z,2.75
2022-11-08T15:55:49.047Z,4.28
2022-11-08T16:00:51.158Z,2.55
2022-11-08T16:05:53.312Z,2.40
2022-11-08T16:10:59.818Z,2.70
2022-11-08T16:16:04.054Z,2.70
2022-11-08T16:21:06.624Z,5.65
2022-11-08T16:26:15.374Z,3.60
2022-11-08T16:31:20.822Z,3.38
2022-11-08T16:36:25.716Z,3.00
2022-11-08T16:41:27.755Z,3.22
2022-11-08T16:46:29.673Z,8.35
2022-11-08T16:51:31.987Z,5.20
2022-11-08T16:56:33.898Z,5.05
2022-11-08T17:01:36.176Z,4.68
2022-11-08T17:06:38.191Z,4.78
2022-11-08T17:11:40.911Z,4.65
2022-11-08T17:16:42.816Z,3.95
2022-11-08T17:21:45.892Z,3.35
2022-11-08T17:26:48.198Z,6.15
2022-11-08T17:31:50.478Z,15.07
2022-11-08T17:36:53.076Z,17.25
2022-11-08T17:41:54.973Z,8.93
2022-11-08T17:46:56.813Z,2.83
2022-11-08T17:51:58.713Z,2.35
2022-11-08T17:57:00.676Z,2.63
2022-11-08T18:02:03.380Z,4.75
2022-11-08T18:07:05.827Z,2.60
2022-11-08T18:12:07.850Z,2.30
2022-11-08T18:17:09.853Z,1.65
2022-11-08T18:22:11.703Z,2.20
2022-11-08T18:27:13.645Z,1.60
2022-11-08T18:32:15.667Z,2.20
2022-11-08T18:37:17.584Z,2.30
2022-11-08T18:42:19.425Z,1.67
2022-11-08T18:47:21.310Z,2.10
2022-11-08T18:52:23.160Z,2.17
2022-11-08T18:57:25.114Z,1.92
2022-11-08T19:02:27.020Z,7.05
2022-11-08T19:07:29.792Z,2.33
2022-11-08T19:12:31.777Z,1.77
2022-11-08T19:17:35.401Z,1.98
2022-11-08T19:22:37.313Z,1.58
2022-11-08T19:27:39.241Z,4.88
2022-11-08T19:32:41.185Z,2.15
2022-11-08T19:37:43.172Z,2.17
2022-11-08T19:42:45.077Z,2.97
2022-11-08T19:47:50.563Z,1.58
2022-11-08T19:52:52.581Z,1.35
2022-11-08T19:57:54.564Z,1.77
2022-11-08T20:02:56.485Z,1.90
2022-11-08T20:07:58.347Z,1.50
2022-11-08T20:13:00.253Z,1.52
2022-11-08T20:18:02.023Z,1.55
2022-11-08T20:23:04.641Z,1.42
2022-11-08T20:28:07.079Z,1.63
2022-11-08T20:33:08.906Z,1.92
2022-11-08T20:38:10.704Z,1.15
2022-11-08T20:43:12.541Z,1.65
2022-11-08T20:48:14.495Z,1.45
2022-11-08T20:53:16.316Z,1.60
2022-11-08T20:58:18.402Z,2.35
2022-11-08T21:03:21.920Z,2.20
2022-11-08T21:13:47.244Z,1.80
2022-11-08T21:18:49.159Z,1.65
2022-11-08T21:23:51.605Z,4.38
2022-11-08T21:28:54.449Z,4.13
2022-11-08T21:33:56.317Z,2.30
2022-11-08T21:38:58.123Z,4.38
2022-11-08T21:44:00.118Z,1.83
2022-11-08T21:49:02.406Z,3.30
2022-11-08T21:54:05.240Z,3.45
2022-11-08T21:59:07.090Z,1.90
2022-11-08T22:04:08.879Z,1.77
2022-11-08T22:09:10.689Z,1.92
2022-11-08T22:14:12.673Z,2.00
2022-11-08T22:19:15.554Z,2.25
2022-11-08T22:24:22.783Z,2.22
2022-11-08T22:29:25.139Z,1.90
2022-11-08T22:34:27.426Z,2.38
2022-11-08T22:39:29.494Z,2.05
2022-11-08T22:44:31.307Z,1.88
2022-11-08T22:49:33.120Z,1.70
2022-11-08T22:54:35.187Z,1.55
2022-11-08T22:59:36.990Z,1.75
2022-11-08T23:04:38.820Z,1.88
2022-11-08T23:09:40.669Z,2.38
2022-11-08T23:15:00.934Z,2.13
2022-11-08T23:20:21.515Z,1.85
2022-11-08T23:25:23.304Z,2.20
2022-11-08T23:30:43.974Z,2.03
2022-11-08T23:36:05.736Z,2.28
2022-11-08T23:41:26.534Z,2.03
2022-11-08T23:51:30.420Z,2.60
2022-11-08T23:56:32.285Z,2.97
